sensor_id;sensor_type;location;lat;lon;timestamp;P1;durP1;ratioP1;P2;durP2;ratioP2
49730;SDS011;35622;52.008;5.426;2023-11-19T00:01:35;19.85;;;9.73;;
49730;SDS011;35622;52.008;5.426;2023-11-19T00:04:01;15.60;;;8.73;;
49730;SDS011;35622;52.008;5.426;2023-11-19T00:06:29;20.25;;;8.65;;
49730;SDS011;35622;52.008;5.426;2023-11-19T00:08:55;18.38;;;8.65;;
49730;SDS011;35622;52.008;5.426;2023-11-19T00:11:20;20.02;;;8.00;;
49730;SDS011;35622;52.008;5.426;2023-11-19T00:13:46;18.10;;;8.40;;
49730;SDS011;35622;52.008;5.426;2023-11-19T00:16:11;18.80;;;7.78;;
49730;SDS011;35622;52.008;5.426;2023-11-19T00:18:37;20.90;;;7.63;;
49730;SDS011;35622;52.008;5.426;2023-11-19T00:21:03;14.57;;;7.30;;
49730;SDS011;35622;52.008;5.426;2023-11-19T00:23:28;21.63;;;8.05;;
49730;SDS011;35622;52.008;5.426;2023-11-19T00:25:54;19.23;;;8.45;;
49730;SDS011;35622;52.008;5.426;2023-11-19T00:28:19;24.52;;;8.00;;
49730;SDS011;35622;52.008;5.426;2023-11-19T00:30:45;20.33;;;7.40;;
49730;SDS011;35622;52.008;5.426;2023-11-19T00:33:11;25.58;;;7.03;;
49730;SDS011;35622;52.008;5.426;2023-11-19T00:35:36;22.50;;;7.18;;
49730;SDS011;35622;52.008;5.426;2023-11-19T00:38:02;21.88;;;6.97;;
49730;SDS011;35622;52.008;5.426;2023-11-19T00:40:29;18.65;;;6.65;;
49730;SDS011;35622;52.008;5.426;2023-11-19T00:42:54;20.52;;;6.88;;
49730;SDS011;35622;52.008;5.426;2023-11-19T00:45:20;25.73;;;6.25;;
49730;SDS011;35622;52.008;5.426;2023-11-19T00:47:45;19.52;;;5.68;;
49730;SDS011;35622;52.008;5.426;2023-11-19T00:50:11;20.17;;;6.18;;
49730;SDS011;35622;52.008;5.426;2023-11-19T00:52:38;16.98;;;6.30;;
49730;SDS011;35622;52.008;5.426;2023-11-19T00:55:04;21.80;;;6.18;;
49730;SDS011;35622;52.008;5.426;2023-11-19T00:57:30;18.75;;;6.93;;
49730;SDS011;35622;52.008;5.426;2023-11-19T00:59:58;21.35;;;5.78;;
49730;SDS011;35622;52.008;5.426;2023-11-19T01:02:24;19.98;;;5.85;;
49730;SDS011;35622;52.008;5.426;2023-11-19T01:04:49;19.83;;;6.57;;
49730;SDS011;35622;52.008;5.426;2023-11-19T01:07:15;18.10;;;5.88;;
49730;SDS011;35622;52.008;5.426;2023-11-19T01:09:41;22.83;;;5.78;;
49730;SDS011;35622;52.008;5.426;2023-11-19T01:12:07;24.52;;;6.95;;
49730;SDS011;35622;52.008;5.426;2023-11-19T01:14:34;23.60;;;5.32;;
49730;SDS011;35622;52.008;5.426;2023-11-19T01:17:00;23.25;;;5.30;;
49730;SDS011;35622;52.008;5.426;2023-11-19T01:19:26;19.92;;;4.88;;
49730;SDS011;35622;52.008;5.426;2023-11-19T01:21:53;24.30;;;4.90;;
49730;SDS011;35622;52.008;5.426;2023-11-19T01:24:19;28.08;;;5.93;;
49730;SDS011;35622;52.008;5.426;2023-11-19T01:26:45;22.02;;;4.72;;
49730;SDS011;35622;52.008;5.426;2023-11-19T01:29:11;23.25;;;4.38;;
49730;SDS011;35622;52.008;5.426;2023-11-19T01:31:41;17.90;;;4.15;;
49730;SDS011;35622;52.008;5.426;2023-11-19T01:34:07;29.90;;;4.65;;
49730;SDS011;35622;52.008;5.426;2023-11-19T01:36:33;22.10;;;4.68;;
49730;SDS011;35622;52.008;5.426;2023-11-19T01:38:58;24.98;;;4.30;;
49730;SDS011;35622;52.008;5.426;2023-11-19T01:41:24;28.42;;;5.35;;
49730;SDS011;35622;52.008;5.426;2023-11-19T01:43:50;24.02;;;3.72;;
49730;SDS011;35622;52.008;5.426;2023-11-19T01:46:15;20.70;;;4.50;;
49730;SDS011;35622;52.008;5.426;2023-11-19T01:48:45;36.90;;;4.93;;
49730;SDS011;35622;52.008;5.426;2023-11-19T01:51:11;25.35;;;5.20;;
49730;SDS011;35622;52.008;5.426;2023-11-19T01:53:38;29.55;;;5.05;;
49730;SDS011;35622;52.008;5.426;2023-11-19T01:56:05;24.55;;;3.55;;
49730;SDS011;35622;52.008;5.426;2023-11-19T01:58:36;22.50;;;4.25;;
49730;SDS011;35622;52.008;5.426;2023-11-19T02:01:04;24.80;;;4.15;;
49730;SDS011;35622;52.008;5.426;2023-11-19T02:03:31;27.00;;;4.00;;
49730;SDS011;35622;52.008;5.426;2023-11-19T02:05:58;25.02;;;4.07;;
49730;SDS011;35622;52.008;5.426;2023-11-19T02:08:27;24.95;;;3.90;;
49730;SDS011;35622;52.008;5.426;2023-11-19T02:10:54;24.17;;;3.05;;
49730;SDS011;35622;52.008;5.426;2023-11-19T02:13:26;22.25;;;3.92;;
49730;SDS011;35622;52.008;5.426;2023-11-19T02:15:53;29.10;;;4.35;;
49730;SDS011;35622;52.008;5.426;2023-11-19T02:18:19;25.35;;;3.83;;
49730;SDS011;35622;52.008;5.426;2023-11-19T02:20:46;26.42;;;4.38;;
49730;SDS011;35622;52.008;5.426;2023-11-19T02:23:13;28.80;;;4.15;;
49730;SDS011;35622;52.008;5.426;2023-11-19T02:25:39;22.67;;;3.65;;
49730;SDS011;35622;52.008;5.426;2023-11-19T02:28:05;26.42;;;3.85;;
49730;SDS011;35622;52.008;5.426;2023-11-19T02:30:32;28.38;;;4.55;;
49730;SDS011;35622;52.008;5.426;2023-11-19T02:32:58;23.23;;;4.45;;
49730;SDS011;35622;52.008;5.426;2023-11-19T02:35:28;34.72;;;4.65;;
49730;SDS011;35622;52.008;5.426;2023-11-19T02:37:56;35.33;;;4.93;;
49730;SDS011;35622;52.008;5.426;2023-11-19T02:40:23;35.58;;;5.05;;
49730;SDS011;35622;52.008;5.426;2023-11-19T02:42:49;29.73;;;4.50;;
49730;SDS011;35622;52.008;5.426;2023-11-19T02:45:15;26.20;;;5.53;;
49730;SDS011;35622;52.008;5.426;2023-11-19T02:47:41;29.08;;;4.82;;
49730;SDS011;35622;52.008;5.426;2023-11-19T02:50:09;28.85;;;4.78;;
49730;SDS011;35622;52.008;5.426;2023-11-19T02:52:41;30.20;;;5.43;;
49730;SDS011;35622;52.008;5.426;2023-11-19T02:55:07;42.85;;;5.55;;
49730;SDS011;35622;52.008;5.426;2023-11-19T02:57:35;33.72;;;5.55;;
49730;SDS011;35622;52.008;5.426;2023-11-19T03:00:01;34.45;;;4.75;;
49730;SDS011;35622;52.008;5.426;2023-11-19T03:02:31;31.65;;;5.97;;
49730;SDS011;35622;52.008;5.426;2023-11-19T03:05:08;33.60;;;5.65;;
49730;SDS011;35622;52.008;5.426;2023-11-19T03:07:34;29.67;;;4.25;;
49730;SDS011;35622;52.008;5.426;2023-11-19T03:09:59;32.90;;;4.38;;
49730;SDS011;35622;52.008;5.426;2023-11-19T03:12:25;32.08;;;4.55;;
49730;SDS011;35622;52.008;5.426;2023-11-19T03:14:51;33.63;;;6.03;;
49730;SDS011;35622;52.008;5.426;2023-11-19T03:17:16;35.47;;;4.93;;
49730;SDS011;35622;52.008;5.426;2023-11-19T03:19:43;42.95;;;6.47;;
49730;SDS011;35622;52.008;5.426;2023-11-19T03:22:09;36.78;;;5.40;;
49730;SDS011;35622;52.008;5.426;2023-11-19T03:24:36;34.05;;;4.97;;
49730;SDS011;35622;52.008;5.426;2023-11-19T03:27:01;38.17;;;5.15;;
49730;SDS011;35622;52.008;5.426;2023-11-19T03:29:28;31.95;;;4.65;;
49730;SDS011;35622;52.008;5.426;2023-11-19T03:31:54;34.47;;;5.10;;
49730;SDS011;35622;52.008;5.426;2023-11-19T03:34:19;37.20;;;5.03;;
49730;SDS011;35622;52.008;5.426;2023-11-19T03:36:45;34.05;;;5.38;;
49730;SDS011;35622;52.008;5.426;2023-11-19T03:39:10;39.20;;;6.30;;
49730;SDS011;35622;52.008;5.426;2023-11-19T03:41:36;32.90;;;5.47;;
49730;SDS011;35622;52.008;5.426;2023-11-19T03:44:01;41.88;;;5.97;;
49730;SDS011;35622;52.008;5.426;2023-11-19T03:46:27;31.58;;;4.40;;
49730;SDS011;35622;52.008;5.426;2023-11-19T03:48:54;35.35;;;4.85;;
49730;SDS011;35622;52.008;5.426;2023-11-19T03:51:20;33.25;;;5.32;;
49730;SDS011;35622;52.008;5.426;2023-11-19T03:53:45;41.17;;;5.72;;
49730;SDS011;35622;52.008;5.426;2023-11-19T03:56:11;32.95;;;4.90;;
49730;SDS011;35622;52.008;5.426;2023-11-19T03:58:38;40.88;;;5.38;;
49730;SDS011;35622;52.008;5.426;2023-11-19T04:01:13;32.22;;;4.93;;
49730;SDS011;35622;52.008;5.426;2023-11-19T04:03:39;36.85;;;5.95;;
49730;SDS011;35622;52.008;5.426;2023-11-19T04:06:04;39.63;;;5.38;;
49730;SDS011;35622;52.008;5.426;2023-11-19T04:08:30;44.80;;;5.35;;
49730;SDS011;35622;52.008;5.426;2023-11-19T04:10:56;36.33;;;5.53;;
49730;SDS011;35622;52.008;5.426;2023-11-19T04:13:21;39.45;;;5.43;;
49730;SDS011;35622;52.008;5.426;2023-11-19T04:15:49;33.10;;;5.28;;
49730;SDS011;35622;52.008;5.426;2023-11-19T04:18:15;40.20;;;5.28;;
49730;SDS011;35622;52.008;5.426;2023-11-19T04:20:41;34.70;;;5.13;;
49730;SDS011;35622;52.008;5.426;2023-11-19T04:23:07;38.17;;;5.90;;
49730;SDS011;35622;52.008;5.426;2023-11-19T04:25:33;38.20;;;6.55;;
49730;SDS011;35622;52.008;5.426;2023-11-19T04:28:00;38.75;;;5.30;;
49730;SDS011;35622;52.008;5.426;2023-11-19T04:30:25;33.55;;;5.63;;
49730;SDS011;35622;52.008;5.426;2023-11-19T04:32:51;37.60;;;5.10;;
49730;SDS011;35622;52.008;5.426;2023-11-19T04:35:16;36.75;;;5.40;;
49730;SDS011;35622;52.008;5.426;2023-11-19T04:37:44;30.75;;;5.45;;
49730;SDS011;35622;52.008;5.426;2023-11-19T04:40:09;38.72;;;4.80;;
49730;SDS011;35622;52.008;5.426;2023-11-19T04:42:36;39.83;;;5.05;;
49730;SDS011;35622;52.008;5.426;2023-11-19T04:45:05;32.17;;;5.30;;
49730;SDS011;35622;52.008;5.426;2023-11-19T04:47:31;36.22;;;4.93;;
49730;SDS011;35622;52.008;5.426;2023-11-19T04:49:58;38.83;;;5.65;;
49730;SDS011;35622;52.008;5.426;2023-11-19T04:52:23;31.30;;;4.63;;
49730;SDS011;35622;52.008;5.426;2023-11-19T04:54:49;34.10;;;5.03;;
49730;SDS011;35622;52.008;5.426;2023-11-19T04:57:14;41.65;;;4.68;;
49730;SDS011;35622;52.008;5.426;2023-11-19T04:59:40;40.38;;;4.88;;
49730;SDS011;35622;52.008;5.426;2023-11-19T05:02:06;34.47;;;4.72;;
49730;SDS011;35622;52.008;5.426;2023-11-19T05:04:33;38.53;;;4.97;;
49730;SDS011;35622;52.008;5.426;2023-11-19T05:06:58;36.58;;;4.85;;
49730;SDS011;35622;52.008;5.426;2023-11-19T05:09:24;35.00;;;5.28;;
49730;SDS011;35622;52.008;5.426;2023-11-19T05:11:50;40.38;;;5.35;;
49730;SDS011;35622;52.008;5.426;2023-11-19T05:14:16;40.50;;;6.00;;
49730;SDS011;35622;52.008;5.426;2023-11-19T05:16:41;43.80;;;5.18;;
49730;SDS011;35622;52.008;5.426;2023-11-19T05:19:08;29.92;;;5.28;;
49730;SDS011;35622;52.008;5.426;2023-11-19T05:21:34;38.90;;;5.28;;
49730;SDS011;35622;52.008;5.426;2023-11-19T05:24:01;34.03;;;5.50;;
49730;SDS011;35622;52.008;5.426;2023-11-19T05:26:29;41.60;;;5.55;;
49730;SDS011;35622;52.008;5.426;2023-11-19T05:28:55;36.60;;;5.68;;
49730;SDS011;35622;52.008;5.426;2023-11-19T05:31:21;41.92;;;5.95;;
49730;SDS011;35622;52.008;5.426;2023-11-19T05:33:46;38.65;;;5.15;;
49730;SDS011;35622;52.008;5.426;2023-11-19T05:36:12;33.60;;;4.90;;
49730;SDS011;35622;52.008;5.426;2023-11-19T05:38:38;36.58;;;5.22;;
49730;SDS011;35622;52.008;5.426;2023-11-19T05:41:04;43.63;;;5.95;;
49730;SDS011;35622;52.008;5.426;2023-11-19T05:43:30;34.60;;;5.53;;
49730;SDS011;35622;52.008;5.426;2023-11-19T05:45:56;42.72;;;6.20;;
49730;SDS011;35622;52.008;5.426;2023-11-19T05:48:22;36.42;;;5.75;;
49730;SDS011;35622;52.008;5.426;2023-11-19T05:50:47;36.17;;;5.00;;
49730;SDS011;35622;52.008;5.426;2023-11-19T05:53:15;36.95;;;4.88;;
49730;SDS011;35622;52.008;5.426;2023-11-19T05:55:40;34.60;;;5.25;;
49730;SDS011;35622;52.008;5.426;2023-11-19T05:58:29;31.63;;;5.63;;
49730;SDS011;35622;52.008;5.426;2023-11-19T06:00:55;35.08;;;5.97;;
49730;SDS011;35622;52.008;5.426;2023-11-19T06:03:21;40.45;;;5.25;;
49730;SDS011;35622;52.008;5.426;2023-11-19T06:05:48;36.33;;;4.85;;
49730;SDS011;35622;52.008;5.426;2023-11-19T06:08:14;42.75;;;4.47;;
49730;SDS011;35622;52.008;5.426;2023-11-19T06:10:40;33.95;;;5.63;;
49730;SDS011;35622;52.008;5.426;2023-11-19T06:13:06;35.67;;;5.25;;
49730;SDS011;35622;52.008;5.426;2023-11-19T06:15:34;34.92;;;4.88;;
49730;SDS011;35622;52.008;5.426;2023-11-19T06:18:01;31.52;;;5.18;;
49730;SDS011;35622;52.008;5.426;2023-11-19T06:20:28;41.78;;;5.93;;
49730;SDS011;35622;52.008;5.426;2023-11-19T06:22:57;34.45;;;5.32;;
49730;SDS011;35622;52.008;5.426;2023-11-19T06:25:23;39.35;;;6.07;;
49730;SDS011;35622;52.008;5.426;2023-11-19T06:27:49;42.55;;;5.50;;
49730;SDS011;35622;52.008;5.426;2023-11-19T06:30:18;36.30;;;5.22;;
49730;SDS011;35622;52.008;5.426;2023-11-19T06:32:44;33.67;;;4.53;;
49730;SDS011;35622;52.008;5.426;2023-11-19T06:35:09;41.30;;;6.00;;
49730;SDS011;35622;52.008;5.426;2023-11-19T06:37:36;35.83;;;5.70;;
49730;SDS011;35622;52.008;5.426;2023-11-19T06:40:04;40.58;;;5.35;;
49730;SDS011;35622;52.008;5.426;2023-11-19T06:42:30;32.67;;;5.20;;
49730;SDS011;35622;52.008;5.426;2023-11-19T06:44:56;40.03;;;5.22;;
49730;SDS011;35622;52.008;5.426;2023-11-19T06:47:25;41.63;;;5.82;;
49730;SDS011;35622;52.008;5.426;2023-11-19T06:49:52;42.40;;;4.85;;
49730;SDS011;35622;52.008;5.426;2023-11-19T06:52:18;36.47;;;5.53;;
49730;SDS011;35622;52.008;5.426;2023-11-19T06:54:44;40.03;;;5.40;;
49730;SDS011;35622;52.008;5.426;2023-11-19T06:57:12;34.38;;;5.00;;
49730;SDS011;35622;52.008;5.426;2023-11-19T06:59:38;39.85;;;5.53;;
49730;SDS011;35622;52.008;5.426;2023-11-19T07:02:04;35.72;;;5.10;;
49730;SDS011;35622;52.008;5.426;2023-11-19T07:04:31;32.15;;;4.50;;
49730;SDS011;35622;52.008;5.426;2023-11-19T07:06:58;34.80;;;5.00;;
49730;SDS011;35622;52.008;5.426;2023-11-19T07:09:24;42.67;;;5.82;;
49730;SDS011;35622;52.008;5.426;2023-11-19T07:11:50;45.90;;;5.22;;
49730;SDS011;35622;52.008;5.426;2023-11-19T07:14:17;36.88;;;5.35;;
49730;SDS011;35622;52.008;5.426;2023-11-19T07:16:43;49.35;;;6.13;;
49730;SDS011;35622;52.008;5.426;2023-11-19T07:19:09;40.42;;;5.32;;
49730;SDS011;35622;52.008;5.426;2023-11-19T07:21:35;38.35;;;5.95;;
49730;SDS011;35622;52.008;5.426;2023-11-19T07:24:04;38.58;;;5.00;;
49730;SDS011;35622;52.008;5.426;2023-11-19T07:26:30;36.08;;;5.15;;
49730;SDS011;35622;52.008;5.426;2023-11-19T07:28:56;33.80;;;4.75;;
49730;SDS011;35622;52.008;5.426;2023-11-19T07:31:22;35.95;;;5.03;;
49730;SDS011;35622;52.008;5.426;2023-11-19T07:33:49;32.28;;;5.18;;
49730;SDS011;35622;52.008;5.426;2023-11-19T07:36:14;41.25;;;5.22;;
49730;SDS011;35622;52.008;5.426;2023-11-19T07:38:40;29.95;;;4.68;;
49730;SDS011;35622;52.008;5.426;2023-11-19T07:41:06;37.08;;;5.40;;
49730;SDS011;35622;52.008;5.426;2023-11-19T07:43:34;46.83;;;5.00;;
49730;SDS011;35622;52.008;5.426;2023-11-19T07:45:59;32.58;;;4.05;;
49730;SDS011;35622;52.008;5.426;2023-11-19T07:48:25;39.22;;;5.10;;
49730;SDS011;35622;52.008;5.426;2023-11-19T07:50:51;33.00;;;5.20;;
49730;SDS011;35622;52.008;5.426;2023-11-19T07:53:18;38.33;;;5.25;;
49730;SDS011;35622;52.008;5.426;2023-11-19T07:55:44;33.55;;;5.13;;
49730;SDS011;35622;52.008;5.426;2023-11-19T07:58:10;43.55;;;5.75;;
49730;SDS011;35622;52.008;5.426;2023-11-19T08:00:36;32.92;;;5.13;;
49730;SDS011;35622;52.008;5.426;2023-11-19T08:03:02;32.05;;;4.68;;
49730;SDS011;35622;52.008;5.426;2023-11-19T08:05:28;36.35;;;5.20;;
49730;SDS011;35622;52.008;5.426;2023-11-19T08:07:54;33.65;;;4.93;;
49730;SDS011;35622;52.008;5.426;2023-11-19T08:10:19;29.92;;;4.47;;
49730;SDS011;35622;52.008;5.426;2023-11-19T08:12:45;31.42;;;5.20;;
49730;SDS011;35622;52.008;5.426;2023-11-19T08:15:10;33.33;;;5.43;;
49730;SDS011;35622;52.008;5.426;2023-11-19T08:17:36;42.13;;;5.63;;
49730;SDS011;35622;52.008;5.426;2023-11-19T08:20:02;33.80;;;4.97;;
49730;SDS011;35622;52.008;5.426;2023-11-19T08:22:29;33.78;;;4.95;;
49730;SDS011;35622;52.008;5.426;2023-11-19T08:24:55;31.67;;;5.43;;
49730;SDS011;35622;52.008;5.426;2023-11-19T08:27:21;35.92;;;4.60;;
49730;SDS011;35622;52.008;5.426;2023-11-19T08:29:52;30.13;;;4.53;;
49730;SDS011;35622;52.008;5.426;2023-11-19T08:32:20;28.27;;;5.32;;
49730;SDS011;35622;52.008;5.426;2023-11-19T08:34:46;34.83;;;5.80;;
49730;SDS011;35622;52.008;5.426;2023-11-19T08:37:11;32.38;;;4.60;;
49730;SDS011;35622;52.008;5.426;2023-11-19T08:39:37;27.75;;;5.00;;
49730;SDS011;35622;52.008;5.426;2023-11-19T08:42:03;35.45;;;6.35;;
49730;SDS011;35622;52.008;5.426;2023-11-19T08:44:29;30.77;;;4.97;;
49730;SDS011;35622;52.008;5.426;2023-11-19T08:46:55;28.85;;;4.43;;
49730;SDS011;35622;52.008;5.426;2023-11-19T08:49:20;25.50;;;4.38;;
49730;SDS011;35622;52.008;5.426;2023-11-19T08:51:46;32.90;;;5.07;;
49730;SDS011;35622;52.008;5.426;2023-11-19T08:54:11;30.63;;;4.35;;
49730;SDS011;35622;52.008;5.426;2023-11-19T08:56:38;26.77;;;4.95;;
49730;SDS011;35622;52.008;5.426;2023-11-19T08:59:04;29.30;;;4.78;;
49730;SDS011;35622;52.008;5.426;2023-11-19T09:01:30;28.50;;;4.20;;
49730;SDS011;35622;52.008;5.426;2023-11-19T09:03:55;27.50;;;4.55;;
49730;SDS011;35622;52.008;5.426;2023-11-19T09:06:21;28.17;;;4.38;;
49730;SDS011;35622;52.008;5.426;2023-11-19T09:08:47;29.88;;;5.10;;
49730;SDS011;35622;52.008;5.426;2023-11-19T09:11:12;26.90;;;5.07;;
49730;SDS011;35622;52.008;5.426;2023-11-19T09:13:38;36.25;;;5.60;;
49730;SDS011;35622;52.008;5.426;2023-11-19T09:16:03;22.02;;;3.95;;
49730;SDS011;35622;52.008;5.426;2023-11-19T09:18:29;37.67;;;5.50;;
49730;SDS011;35622;52.008;5.426;2023-11-19T09:20:56;28.58;;;4.20;;
49730;SDS011;35622;52.008;5.426;2023-11-19T09:23:22;27.95;;;4.25;;
49730;SDS011;35622;52.008;5.426;2023-11-19T09:25:49;29.00;;;4.13;;
49730;SDS011;35622;52.008;5.426;2023-11-19T09:28:15;30.33;;;4.57;;
49730;SDS011;35622;52.008;5.426;2023-11-19T09:30:40;29.13;;;4.57;;
49730;SDS011;35622;52.008;5.426;2023-11-19T09:33:06;32.15;;;4.35;;
49730;SDS011;35622;52.008;5.426;2023-11-19T09:35:31;28.15;;;4.45;;
49730;SDS011;35622;52.008;5.426;2023-11-19T09:37:57;27.52;;;4.55;;
49730;SDS011;35622;52.008;5.426;2023-11-19T09:40:24;27.52;;;4.95;;
49730;SDS011;35622;52.008;5.426;2023-11-19T09:42:49;36.25;;;5.20;;
49730;SDS011;35622;52.008;5.426;2023-11-19T09:45:16;32.17;;;4.93;;
49730;SDS011;35622;52.008;5.426;2023-11-19T09:47:46;33.15;;;4.70;;
49730;SDS011;35622;52.008;5.426;2023-11-19T09:50:14;21.88;;;3.85;;
49730;SDS011;35622;52.008;5.426;2023-11-19T09:52:44;27.88;;;4.25;;
49730;SDS011;35622;52.008;5.426;2023-11-19T09:55:11;25.98;;;4.45;;
49730;SDS011;35622;52.008;5.426;2023-11-19T09:57:40;28.45;;;5.10;;
49730;SDS011;35622;52.008;5.426;2023-11-19T10:00:07;31.30;;;4.40;;
49730;SDS011;35622;52.008;5.426;2023-11-19T10:02:35;25.98;;;4.28;;
49730;SDS011;35622;52.008;5.426;2023-11-19T10:05:05;31.35;;;4.80;;
49730;SDS011;35622;52.008;5.426;2023-11-19T10:07:32;24.00;;;3.92;;
49730;SDS011;35622;52.008;5.426;2023-11-19T10:10:02;25.77;;;4.25;;
49730;SDS011;35622;52.008;5.426;2023-11-19T10:12:32;26.02;;;4.70;;
49730;SDS011;35622;52.008;5.426;2023-11-19T10:14:58;34.53;;;4.65;;
49730;SDS011;35622;52.008;5.426;2023-11-19T10:17:28;27.10;;;4.85;;
49730;SDS011;35622;52.008;5.426;2023-11-19T10:19:56;31.90;;;5.25;;
49730;SDS011;35622;52.008;5.426;2023-11-19T10:22:22;24.52;;;4.07;;
49730;SDS011;35622;52.008;5.426;2023-11-19T10:24:49;24.42;;;4.22;;
49730;SDS011;35622;52.008;5.426;2023-11-19T10:27:15;24.52;;;3.67;;
49730;SDS011;35622;52.008;5.426;2023-11-19T10:29:40;27.30;;;4.63;;
49730;SDS011;35622;52.008;5.426;2023-11-19T10:32:09;27.42;;;5.18;;
49730;SDS011;35622;52.008;5.426;2023-11-19T10:34:34;32.20;;;4.85;;
49730;SDS011;35622;52.008;5.426;2023-11-19T10:37:02;32.67;;;4.78;;
49730;SDS011;35622;52.008;5.426;2023-11-19T10:42:30;28.65;;;4.57;;
49730;SDS011;35622;52.008;5.426;2023-11-19T10:44:56;30.95;;;5.10;;
49730;SDS011;35622;52.008;5.426;2023-11-19T10:47:22;27.27;;;4.53;;
49730;SDS011;35622;52.008;5.426;2023-11-19T10:49:48;28.70;;;4.20;;
49730;SDS011;35622;52.008;5.426;2023-11-19T10:52:17;33.53;;;5.30;;
49730;SDS011;35622;52.008;5.426;2023-11-19T10:54:44;23.60;;;4.18;;
49730;SDS011;35622;52.008;5.426;2023-11-19T10:57:17;26.98;;;3.95;;
49730;SDS011;35622;52.008;5.426;2023-11-19T10:59:46;28.17;;;4.20;;
49730;SDS011;35622;52.008;5.426;2023-11-19T11:02:14;30.30;;;4.57;;
49730;SDS011;35622;52.008;5.426;2023-11-19T11:04:44;30.70;;;4.32;;
49730;SDS011;35622;52.008;5.426;2023-11-19T11:07:12;28.20;;;4.22;;
49730;SDS011;35622;52.008;5.426;2023-11-19T11:09:40;24.95;;;4.22;;
49730;SDS011;35622;52.008;5.426;2023-11-19T11:12:06;27.35;;;3.90;;
49730;SDS011;35622;52.008;5.426;2023-11-19T11:14:34;30.73;;;4.05;;
49730;SDS011;35622;52.008;5.426;2023-11-19T11:17:05;24.10;;;4.00;;
49730;SDS011;35622;52.008;5.426;2023-11-19T11:19:33;26.77;;;4.07;;
49730;SDS011;35622;52.008;5.426;2023-11-19T11:21:59;33.60;;;4.47;;
49730;SDS011;35622;52.008;5.426;2023-11-19T11:24:35;25.08;;;4.00;;
49730;SDS011;35622;52.008;5.426;2023-11-19T11:36:13;31.50;;;4.97;;
49730;SDS011;35622;52.008;5.426;2023-11-19T11:38:45;24.35;;;4.70;;
49730;SDS011;35622;52.008;5.426;2023-11-19T11:41:17;30.27;;;4.93;;
49730;SDS011;35622;52.008;5.426;2023-11-19T11:48:57;26.20;;;4.15;;
49730;SDS011;35622;52.008;5.426;2023-11-19T11:54:09;23.52;;;4.00;;
49730;SDS011;35622;52.008;5.426;2023-11-19T11:59:36;26.00;;;3.95;;
49730;SDS011;35622;52.008;5.426;2023-11-19T12:02:02;25.90;;;3.80;;
49730;SDS011;35622;52.008;5.426;2023-11-19T12:04:28;20.05;;;3.00;;
49730;SDS011;35622;52.008;5.426;2023-11-19T12:09:28;20.88;;;3.80;;
49730;SDS011;35622;52.008;5.426;2023-11-19T12:12:07;16.77;;;2.85;;
49730;SDS011;35622;52.008;5.426;2023-11-19T12:19:59;17.70;;;2.65;;
49730;SDS011;35622;52.008;5.426;2023-11-19T12:22:25;22.98;;;4.07;;
49730;SDS011;35622;52.008;5.426;2023-11-19T12:24:51;23.10;;;3.40;;
49730;SDS011;35622;52.008;5.426;2023-11-19T12:27:18;22.60;;;3.88;;
49730;SDS011;35622;52.008;5.426;2023-11-19T12:29:47;22.83;;;3.42;;
49730;SDS011;35622;52.008;5.426;2023-11-19T12:32:12;25.35;;;3.58;;
49730;SDS011;35622;52.008;5.426;2023-11-19T12:34:38;22.90;;;4.15;;
49730;SDS011;35622;52.008;5.426;2023-11-19T12:37:04;21.58;;;3.28;;
49730;SDS011;35622;52.008;5.426;2023-11-19T12:39:30;18.23;;;3.08;;
49730;SDS011;35622;52.008;5.426;2023-11-19T12:41:56;24.70;;;3.40;;
49730;SDS011;35622;52.008;5.426;2023-11-19T12:44:24;25.83;;;4.18;;
49730;SDS011;35622;52.008;5.426;2023-11-19T12:47:08;26.27;;;3.80;;
49730;SDS011;35622;52.008;5.426;2023-11-19T12:49:36;24.77;;;3.50;;
49730;SDS011;35622;52.008;5.426;2023-11-19T12:52:02;21.00;;;3.78;;
49730;SDS011;35622;52.008;5.426;2023-11-19T12:54:36;20.58;;;4.18;;
49730;SDS011;35622;52.008;5.426;2023-11-19T12:57:02;24.08;;;4.18;;
49730;SDS011;35622;52.008;5.426;2023-11-19T12:59:29;18.48;;;3.80;;
49730;SDS011;35622;52.008;5.426;2023-11-19T13:01:56;17.85;;;3.08;;
49730;SDS011;35622;52.008;5.426;2023-11-19T13:04:28;20.52;;;4.18;;
49730;SDS011;35622;52.008;5.426;2023-11-19T13:07:01;21.13;;;3.67;;
49730;SDS011;35622;52.008;5.426;2023-11-19T13:09:29;23.77;;;3.80;;
49730;SDS011;35622;52.008;5.426;2023-11-19T13:11:55;17.48;;;3.60;;
49730;SDS011;35622;52.008;5.426;2023-11-19T13:14:21;21.00;;;3.67;;
49730;SDS011;35622;52.008;5.426;2023-11-19T13:16:48;22.10;;;3.25;;
49730;SDS011;35622;52.008;5.426;2023-11-19T13:19:14;22.52;;;3.67;;
49730;SDS011;35622;52.008;5.426;2023-11-19T13:21:41;18.98;;;3.55;;
49730;SDS011;35622;52.008;5.426;2023-11-19T13:24:07;29.33;;;4.03;;
49730;SDS011;35622;52.008;5.426;2023-11-19T13:26:33;28.38;;;4.95;;
49730;SDS011;35622;52.008;5.426;2023-11-19T13:28:59;23.73;;;4.15;;
49730;SDS011;35622;52.008;5.426;2023-11-19T13:31:25;27.95;;;4.47;;
49730;SDS011;35622;52.008;5.426;2023-11-19T13:33:51;23.02;;;3.38;;
49730;SDS011;35622;52.008;5.426;2023-11-19T13:36:16;26.70;;;3.70;;
49730;SDS011;35622;52.008;5.426;2023-11-19T13:38:42;24.63;;;3.80;;
49730;SDS011;35622;52.008;5.426;2023-11-19T13:41:09;31.60;;;4.15;;
49730;SDS011;35622;52.008;5.426;2023-11-19T13:43:36;28.63;;;4.43;;
49730;SDS011;35622;52.008;5.426;2023-11-19T13:46:02;22.45;;;3.03;;
49730;SDS011;35622;52.008;5.426;2023-11-19T13:48:28;25.98;;;4.53;;
49730;SDS011;35622;52.008;5.426;2023-11-19T13:50:54;22.02;;;3.97;;
49730;SDS011;35622;52.008;5.426;2023-11-19T13:53:20;19.92;;;3.45;;
49730;SDS011;35622;52.008;5.426;2023-11-19T13:55:46;24.33;;;3.47;;
49730;SDS011;35622;52.008;5.426;2023-11-19T13:58:12;22.95;;;3.28;;
49730;SDS011;35622;52.008;5.426;2023-11-19T14:00:38;22.52;;;3.28;;
49730;SDS011;35622;52.008;5.426;2023-11-19T14:03:03;25.15;;;3.42;;
49730;SDS011;35622;52.008;5.426;2023-11-19T14:05:30;24.77;;;4.03;;
49730;SDS011;35622;52.008;5.426;2023-11-19T14:07:55;26.65;;;3.78;;
49730;SDS011;35622;52.008;5.426;2023-11-19T14:10:21;26.58;;;4.22;;
49730;SDS011;35622;52.008;5.426;2023-11-19T14:12:48;26.75;;;4.32;;
49730;SDS011;35622;52.008;5.426;2023-11-19T14:15:14;28.30;;;3.72;;
49730;SDS011;35622;52.008;5.426;2023-11-19T14:17:42;27.23;;;3.80;;
49730;SDS011;35622;52.008;5.426;2023-11-19T14:20:08;26.55;;;4.28;;
49730;SDS011;35622;52.008;5.426;2023-11-19T14:22:44;24.63;;;3.35;;
49730;SDS011;35622;52.008;5.426;2023-11-19T14:25:13;16.67;;;2.97;;
49730;SDS011;35622;52.008;5.426;2023-11-19T14:27:42;20.73;;;3.75;;
49730;SDS011;35622;52.008;5.426;2023-11-19T14:30:08;25.27;;;3.55;;
49730;SDS011;35622;52.008;5.426;2023-11-19T14:32:39;25.52;;;3.40;;
49730;SDS011;35622;52.008;5.426;2023-11-19T14:35:07;27.73;;;4.15;;
49730;SDS011;35622;52.008;5.426;2023-11-19T14:37:33;20.85;;;3.35;;
49730;SDS011;35622;52.008;5.426;2023-11-19T14:39:59;25.05;;;3.70;;
49730;SDS011;35622;52.008;5.426;2023-11-19T14:42:25;25.98;;;4.18;;
49730;SDS011;35622;52.008;5.426;2023-11-19T14:44:51;26.80;;;3.75;;
49730;SDS011;35622;52.008;5.426;2023-11-19T14:47:21;23.05;;;3.55;;
49730;SDS011;35622;52.008;5.426;2023-11-19T14:49:47;22.63;;;3.65;;
49730;SDS011;35622;52.008;5.426;2023-11-19T14:52:12;23.60;;;3.72;;
49730;SDS011;35622;52.008;5.426;2023-11-19T14:54:38;27.05;;;3.45;;
49730;SDS011;35622;52.008;5.426;2023-11-19T14:57:07;18.67;;;3.30;;
49730;SDS011;35622;52.008;5.426;2023-11-19T14:59:36;23.17;;;3.63;;
49730;SDS011;35622;52.008;5.426;2023-11-19T15:02:02;28.45;;;3.97;;